Tiempo atmosférico en la estación meteorológica de Brozas , Cáceres (411 m.)



Fecha
DESCASC
Temp. máxima en grados centígrados (hora)
DESCASC
Temp. mínima en grados centígrados (hora)
DESCASC
Temp. media en grados centígrados
DESCASC
Racha de viento máxima en m/sg (hora)
DESCASC
Velocidad máxima media en intervalos de 10 minutos(hora)
DESCASC
Precipitaciones diarias en mm
DESCASC
Precipitaciones de 00:00 a 06:00 en mm
DESCASC
Precipitaciones de 06:00 a 12:00 en mm
DESCASC
Precipitaciones de 12:00 a 18:00 en mm
DESCASC
Precipitaciones de 18:00 a 24:00 en mm
DESCASC
03-12-2020 12.5 (16:40) 2 (08:00) 7.3 12.5 (23:50) 9.17 (23:50) 0 0 0 0 0
02-12-2020 16 (14:40) 4.9 (07:20) 10.5 11.94 (12:50) 8.61 (12:50) 0 0 0 0 0
01-12-2020 16.4 (15:00) 6.9 (23:00) 11.6 7.5 (01:50) 5.56 (01:50) 0 0 0 0 0
30-11-2020 15.8 (15:10) 9.2 (00:00) 12.5 12.22 (12:40) 8.61 (13:00) 0.8 0.8 0 0 0
29-11-2020 12.9 (14:20) 8.1 (00:00) 10.5 16.39 (20:10) 7.78 (17:40) 21 0.4 0.2 1 19.4
28-11-2020 13.1 (14:40) 7.6 (00:00) 10.4 10.83 (23:00) 7.78 (23:00) 0.4 0 0 0 0.4
27-11-2020 13.2 (12:50) 7.2 (00:00) 10.2 13.33 (15:00) 9.44 (14:20) 0 0 0 0 0
26-11-2020 10.4 (13:50) 7.8 (00:00) 9.1 12.78 (00:10) 8.61 (00:10) 13 8 0.8 4 0.2
25-11-2020 12.4 (15:40) 7.8 (00:00) 10.1 12.22 (15:30) 8.89 (15:50) 17.4 0.8 13.8 0.4 2.4
24-11-2020 15.8 (15:50) 6.6 (00:00) 11.2 4.44 (00:10) 3.89 (00:10) 0 0 0 0 0
23-11-2020 16.8 (15:10) 6.1 (00:00) 11.4 6.11 (05:30) 5 (06:50) 0 0 0 0 0
22-11-2020 16.8 (16:00) 7.1 (00:00) 11.9 6.94 (02:20) 5.28 (02:20) 0 0 0 0 0
21-11-2020 16.7 (15:10) 6.6 (00:00) 11.7 9.17 (09:50) 6.67 (09:50) 0 0 0 0 0
20-11-2020 19 (15:30) 9.6 (00:00) 14.3 8.61 (03:40) 6.11 (03:50) 0 0 0 0 0
19-11-2020 21.5 (15:20) 9.9 (00:00) 15.7 9.72 (12:40) 6.67 (12:40) 0 0 0 0 0
18-11-2020 18.2 (15:50) 9.2 (00:00) 13.7 6.11 (09:30) 5 (21:10) 0 0 0 0 0
17-11-2020 18 (17:00) 9.3 (00:00) 13.7 4.72 (06:40) 3.61 (06:40) 0.2 0 0.2 0 0
16-11-2020 17.6 (15:10) 12.8 (00:00) 15.2 3.89 (09:30) 3.06 (00:10) 0.2 0 0.2 0 0
15-11-2020 20.1 (14:40) 14.7 (00:00) 17.4 8.89 (10:50) 6.39 (11:10) 0 0 0 0 0
14-11-2020 16.8 (17:20) 13.2 (00:00) 15 6.11 (15:00) 4.72 (15:00) 1 0 0.8 0.2 0
13-11-2020 15.6 (13:50) 10.3 (00:00) 13 7.22 (00:40) 5 (00:40) 0 0 0 0 0
12-11-2020 17.6 (15:10) 10.8 (00:00) 14.2 7.5 (20:20) 5.56 (20:20) 0 0 0 0 0
11-11-2020 18.3 (13:30) 8.6 (00:00) 13.4 6.39 (01:40) 5 (01:10) 0 0 0 0 0
10-11-2020 16.8 (16:30) 7.5 (00:00) 12.1 5 (23:20) 4.72 (23:00) 0 0 0 0 0
09-11-2020 16.2 (14:30) 10.6 (00:00) 13.4 4.72 (11:50) 2.78 (11:50) 0.4 0 0.2 0.2 0
08-11-2020 16.2 (14:50) 11.7 (00:00) 14 11.11 (00:50) 8.33 (00:50) 7.4 0 0 4.6 2.8
07-11-2020 17.6 (15:20) 11 (00:00) 14.3 10.56 (13:10) 7.5 (13:10) 3.6 3.4 0 0.2 0
06-11-2020 17.8 (15:00) 11.3 (00:00) 14.5 19.72 (17:30) 14.17 (17:30) 12.4 7.4 1 3 1
05-11-2020 14.2 (15:30) 10.5 (00:00) 12.3 17.5 (04:10) 11.94 (04:10) 12.6 5.8 6.2 0.4 0.2

Gráficas

Temp. máximas Temp. mínimas Temp. medias Precipitaciones Rachas de viento máximas Velocidades máximas media en intervalos de 10 minutos

Datos horarios

Fecha y hora oficial Temperatura (ºC) Velocidad del viento (km/h) Dirección del viento Racha (km/h) Dirección de racha Precipitación (mm) Presión (hPa) Tendencia (hPa) Humedad (%)
2020-12-04 23:00:00 1.2 11 Noroeste 21 Noroeste 0 -- -- 97
2020-12-04 22:00:00 1.2 13 Noroeste 23 Oeste 0 -- -- 95
2020-12-04 21:00:00 2.1 18 Oeste 28 Oeste 0 -- -- 95
2020-12-04 20:00:00 2.2 18 Noroeste 31 Oeste 0 -- -- 93
2020-12-04 19:00:00 2.6 14 Noroeste 27 Noroeste 0 -- -- 91
2020-12-04 18:00:00 3.7 20 Noroeste 35 Oeste 0 -- -- 88
2020-12-04 17:00:00 5.1 24 Oeste 31 Oeste 0 -- -- 88
2020-12-04 16:00:00 4.6 31 Noroeste 41 Noroeste 0.2 -- -- 88
2020-12-04 15:00:00 5.6 13 Oeste 24 Noroeste 0 -- -- 88
2020-12-04 14:00:00 5.6 19 Noroeste 30 Noroeste 0 -- -- 90
2020-12-04 13:00:00 6.6 33 Noroeste 44 Noroeste 0 -- -- 81
2020-12-04 12:00:00 6.5 26 Oeste 40 Oeste 0 -- -- 83
2020-12-04 11:00:00 6.5 24 Noroeste 35 Noroeste 0 -- -- 85
2020-12-04 10:00:00 6.7 22 Oeste 30 Oeste 0 -- -- 89
2020-12-04 09:00:00 5.9 21 Oeste 35 Oeste 0 -- -- 92
2020-12-04 08:00:00 6.4 25 Oeste 38 Oeste 0 -- -- 88
2020-12-04 07:00:00 6.6 28 Oeste 45 Oeste 0 -- -- 92
2020-12-04 06:00:00 7.1 23 Oeste 52 Noroeste 0 -- -- 97
2020-12-04 05:00:00 7.9 38 Noroeste 61 Oeste 1.2 -- -- 96
2020-12-04 04:00:00 8.7 32 Oeste 49 Sudoeste 0.2 -- -- 97
2020-12-04 03:00:00 8.8 32 Oeste 48 Oeste 0 -- -- 96
2020-12-04 02:00:00 8.5 32 Oeste 46 Oeste 0 -- -- 94
2020-12-04 01:00:00 8.7 32 Oeste 46 Oeste 0 -- -- 92
2020-12-04 00:00:00 8.6 31 Oeste 45 Oeste 0 -- -- 91
2020-12-03 23:00:00 9 31 Oeste 41 Oeste 0 -- -- 88
2020-12-03 22:00:00 8 20 Sudoeste 30 Oeste 0 -- -- 87
2020-12-03 21:00:00 8.4 22 Oeste 35 Oeste 0 -- -- 81
2020-12-03 20:00:00 7.8 16 Oeste 28 Oeste 0 -- -- 78
2020-12-03 19:00:00 8.7 21 Oeste 29 Oeste 0 -- -- 69
2020-12-03 18:00:00 9.5 20 Oeste -- -- -- -- -- 67
2020-12-03 17:00:00 -- -- -- -- -- -- -- -- --
2020-12-03 16:00:00 12.3 18 Oeste 27 Oeste 0 -- -- 52
2020-12-03 15:00:00 12.1 16 Oeste 22 Oeste 0 -- -- 53
2020-12-03 14:00:00 11.7 11 Sudoeste 15 Sudoeste 0 -- -- 52
2020-12-03 13:00:00 10.7 8 Sudoeste 14 Sudoeste 0 -- -- 58
2020-12-03 12:00:00 9.4 5 Noroeste 11 Sur 0 -- -- 61
2020-12-03 11:00:00 7.3 7 Sur 10 Sur 0 -- -- 68
2020-12-03 10:00:00 4.6 9 Sur 14 Sur 0 -- -- 75
2020-12-03 09:00:00 3 11 Este 19 Nordeste 0 -- -- 79
2020-12-03 08:00:00 2 14 Nordeste 18 Nordeste 0 -- -- 82
2020-12-03 07:00:00 2.8 0 Calma 15 Nordeste 0 -- -- 77
2020-12-03 06:00:00 4.2 14 Nordeste 17 Nordeste 0 -- -- 71
2020-12-03 05:00:00 3.7 10 Nordeste 18 Nordeste 0 -- -- 73
2020-12-03 04:00:00 4.4 14 Nordeste 19 Nordeste 0 -- -- 72
2020-12-03 03:00:00 4.1 12 Nordeste 22 Nordeste 0 -- -- 74
2020-12-03 02:00:00 4.2 19 Nordeste 22 Nordeste 0 -- -- 76
2020-12-03 01:00:00 4.8 18 Nordeste 26 Nordeste 0 -- -- 73
2020-12-03 00:00:00 5.9 18 Nordeste 26 Nordeste 0 -- -- 68
2020-12-02 23:00:00 6.5 20 Nordeste 34 Nordeste 0 -- -- 65
2020-12-02 22:00:00 6.8 21 Nordeste 32 Nordeste 0 -- -- 64
2020-12-02 21:00:00 7.6 22 Nordeste 33 Nordeste 0 -- -- 61
2020-12-02 20:00:00 8.1 23 Nordeste 32 Nordeste 0 -- -- 62
2020-12-02 19:00:00 8.8 19 Nordeste 31 Nordeste 0 -- -- 61
2020-12-02 18:00:00 10.8 20 Nordeste 33 Nordeste 0 -- -- 58
2020-12-02 17:00:00 13.7 21 Nordeste 35 Nordeste 0 -- -- 50
2020-12-02 16:00:00 14.6 20 Nordeste 33 Nordeste 0 -- -- 53
2020-12-02 15:00:00 15.4 27 Nordeste 40 Norte 0 -- -- 49
2020-12-02 14:00:00 14.7 19 Nordeste 42 Nordeste 0 -- -- 53
2020-12-02 13:00:00 14.9 29 Nordeste 43 Nordeste 0 -- -- 51
2020-12-02 12:00:00 14 23 Norte 35 Nordeste 0 -- -- 57
2020-12-02 11:00:00 12.7 23 Nordeste 33 Norte 0 -- -- 61
2020-12-02 10:00:00 9.1 12 Norte 14 Norte 0 -- -- 70
2020-12-02 09:00:00 5.1 12 Norte 13 Norte 0 -- -- 81
2020-12-02 08:00:00 5 10 Norte 13 Noroeste 0 -- -- 82
2020-12-02 07:00:00 5.6 10 Noroeste 12 Noroeste 0 -- -- 80
2020-12-02 06:00:00 6.7 7 Norte 13 Nordeste 0 -- -- 69
2020-12-02 05:00:00 7.2 13 Nordeste 20 Nordeste 0 -- -- 67
2020-12-02 04:00:00 5.9 17 Norte 18 Norte 0 -- -- 79
2020-12-02 03:00:00 6.3 10 Norte 15 Norte 0 -- -- 79
2020-12-02 02:00:00 6.4 13 Norte 14 Norte 0 -- -- 76
2020-12-02 01:00:00 6.7 12 Norte 16 Norte 0 -- -- 69
2020-12-02 00:00:00 7 14 Norte 16 Norte 0 -- -- 70
2020-12-01 23:00:00 6.9 13 Norte 16 Norte 0 -- -- 71
2020-12-01 22:00:00 8.8 14 Nordeste 19 Norte 0 -- -- 65
2020-12-01 21:00:00 9.4 11 Norte 14 Nordeste 0 -- -- 73
2020-12-01 20:00:00 11.1 10 Nordeste 14 Norte 0 -- -- 76
2020-12-01 19:00:00 12.2 8 Noroeste 11 Noroeste 0 -- -- 80
2020-12-01 18:00:00 13.8 7 Noroeste 10 Noroeste 0 -- -- 77
2020-12-01 17:00:00 15.8 7 Noroeste 14 Noroeste 0 -- -- 72
2020-12-01 16:00:00 16.3 8 Noroeste 14 Noroeste 0 -- -- 69
2020-12-01 15:00:00 16.4 8 Norte 14 Norte 0 -- -- 65
2020-12-01 14:00:00 15.8 8 Noroeste 13 Norte 0 -- -- 67
2020-12-01 13:00:00 15.2 4 Nordeste 15 Nordeste 0 -- -- 68
2020-12-01 12:00:00 14.4 7 Este 13 Nordeste 0 -- -- 72
2020-12-01 11:00:00 12.3 9 Nordeste 17 Nordeste 0 -- -- 79
2020-12-01 10:00:00 9.9 14 Nordeste 21 Nordeste 0 -- -- 88
2020-12-01 09:00:00 7.7 15 Nordeste 19 Nordeste 0 -- -- 95
2020-12-01 08:00:00 7.5 15 Nordeste 18 Nordeste 0 -- -- 95
2020-12-01 07:00:00 8 16 Nordeste 21 Nordeste 0 -- -- 95
2020-12-01 06:00:00 8.2 17 Nordeste 20 Nordeste 0 -- -- 95
2020-12-01 05:00:00 8.4 10 Norte 18 Nordeste 0 -- -- 90
2020-12-01 04:00:00 9.5 15 Nordeste 20 Nordeste 0 -- -- 88
2020-12-01 03:00:00 10.5 16 Nordeste 25 Este 0 -- -- 85
2020-12-01 02:00:00 10.1 18 Este 27 Este 0 -- -- 90
2020-12-01 01:00:00 9.4 16 Nordeste 21 Nordeste 0 -- -- 93
2020-12-01 00:00:00 9.6 17 Nordeste 21 Nordeste 0 -- -- 91
2020-11-30 23:00:00 10 16 Nordeste 21 Nordeste 0 -- -- 91
2020-11-30 22:00:00 10.1 16 Nordeste 21 Nordeste 0 -- -- 89
2020-11-30 21:00:00 10.4 17 Este 22 Este 0 -- -- 87
2020-11-30 20:00:00 11.3 14 Este 24 Este 0 -- -- 83
2020-11-30 19:00:00 12 16 Este 29 Este 0 -- -- 80
2020-11-30 18:00:00 12.9 19 Este 25 Este 0 -- -- 76
2020-11-30 17:00:00 14.5 16 Este 31 Este 0 -- -- 74
2020-11-30 16:00:00 14.5 18 Este 36 Este 0 -- -- 73
2020-11-30 15:00:00 15.6 17 Este 38 Este 0 -- -- 69
2020-11-30 14:00:00 14.3 22 Este 39 Este 0 -- -- 77
2020-11-30 13:00:00 13.9 31 Este 44 Este 0 -- -- 74
2020-11-30 12:00:00 12.9 25 Este 37 Este 0 -- -- 80
2020-11-30 11:00:00 11.8 27 Este 39 Este 0 -- -- 85
2020-11-30 10:00:00 10.3 26 Este 39 Este 0 -- -- 90
2020-11-30 09:00:00 9.4 23 Este 32 Este 0 -- -- 93
2020-11-30 08:00:00 9.2 22 Este 30 Este 0 -- -- 93
2020-11-30 07:00:00 9.2 21 Este 35 Este 0 -- -- 94
2020-11-30 06:00:00 9.2 21 Este 33 Nordeste 0 -- -- 96
2020-11-30 05:00:00 9.4 22 Este 31 Este 0 -- -- 100
2020-11-30 04:00:00 9.7 19 Este 29 Este 0 -- -- 100
2020-11-30 03:00:00 10.2 19 Este 30 Este 0 -- -- 100
2020-11-30 02:00:00 10.2 22 Este 29 Este 0.6 -- -- 100
2020-11-30 01:00:00 10.4 15 Este 27 Este 0.2 -- -- 100
2020-11-30 00:00:00 10.3 17 Este 27 Este 0 -- -- 99
2020-11-29 23:00:00 10.1 17 Este 26 Este 0.2 -- -- 99
2020-11-29 22:00:00 10.2 18 Este 22 Este 5.2 -- -- 99
2020-11-29 21:00:00 10.3 8 Sudeste 59 Sudoeste 12 -- -- 98
2020-11-29 20:00:00 10.2 21 Nordeste 33 Este 0.4 -- -- 99
2020-11-29 19:00:00 10.2 21 Este 37 Este 1.6 -- -- 98
2020-11-29 18:00:00 10.2 26 Este 38 Este 0 -- -- 98
2020-11-29 17:00:00 10.4 27 Este 36 Este 1 -- -- 97
2020-11-29 16:00:00 12.2 23 Este 35 Este 0 -- -- 91
2020-11-29 15:00:00 12.7 17 Nordeste 24 Este 0 -- -- 91
2020-11-29 14:00:00 12.6 13 Este 24 Este 0 -- -- 91
2020-11-29 13:00:00 12.3 15 Este 24 Este 0 -- -- 92
2020-11-29 12:00:00 12.8 13 Este 25 Sudeste 0 -- -- 88
2020-11-29 11:00:00 12 14 Sudeste 21 Sudeste 0 -- -- 91
2020-11-29 10:00:00 10.1 10 Sudeste 18 Sudeste 0 -- -- 99
2020-11-29 09:00:00 8.2 8 Sudeste 17 Sudeste 0 -- -- 100
2020-11-29 08:00:00 8.8 12 Sudeste 18 Sudeste 0 -- -- 100
2020-11-29 07:00:00 9.1 10 Sudeste 18 Sudeste 0.2 -- -- 100
2020-11-29 06:00:00 9 12 Sudeste 22 Sudeste 0 -- -- 99
2020-11-29 05:00:00 9.6 17 Sudeste 23 Sudeste 0 -- -- 99
2020-11-29 04:00:00 10.2 14 Sur 21 Sudeste -- -- -- 99
2020-11-29 03:00:00 10.3 13 Sudeste 24 Sudeste 0 -- -- 99
2020-11-29 02:00:00 10.2 16 Sudeste 32 Sudeste 0.2 -- -- 97
2020-11-29 01:00:00 10.5 22 Sudeste 33 Sudeste 0 -- -- 95
2020-11-29 00:00:00 10.4 23 Sudeste 34 Sudeste 0 -- -- 93
2020-11-28 23:00:00 10.7 28 Sudeste 39 Sudeste 0 -- -- 90
2020-11-28 22:00:00 10.5 23 Sudeste 30 Sudeste 0 -- -- 91
2020-11-28 21:00:00 10.3 20 Sudeste 28 Sudeste 0 -- -- 93
2020-11-28 20:00:00 10.3 19 Sudeste 31 Sudeste 0.4 -- -- 93
2020-11-28 19:00:00 10.5 18 Sudeste 26 Sudeste 0 -- -- 89
2020-11-28 18:00:00 10.5 17 Sudeste 26 Sudeste 0 -- -- 88
2020-11-28 17:00:00 11.1 13 Sudeste 26 Sur 0 -- -- 86
2020-11-28 16:00:00 12.1 21 Sur 27 Sur 0 -- -- 83
2020-11-28 15:00:00 12.9 17 Sur 24 Sur 0 -- -- 78
2020-11-28 14:00:00 12.5 15 Sur 23 Sudeste 0 -- -- 81
2020-11-28 13:00:00 11.4 17 Sur 22 Sudoeste 0 -- -- 84
2020-11-28 12:00:00 11.4 14 Sur 19 Sur 0 -- -- 85
2020-11-28 11:00:00 11.5 6 Sur 11 Sur 0 -- -- 86
2020-11-28 10:00:00 8.7 7 Sudoeste 17 Sudoeste 0 -- -- 94
2020-11-28 09:00:00 8.2 6 Este 10 Oeste 0 -- -- 93
2020-11-28 08:00:00 7.9 3 Sur 6 Sur 0 -- -- 92
2020-11-28 07:00:00 8.2 3 Sudoeste 7 Noroeste 0 -- -- 89
2020-11-28 06:00:00 8.8 3 Este 5 Sur 0 -- -- 86
2020-11-28 05:00:00 8.7 3 Sudeste 9 Este 0 -- -- 87
2020-11-28 04:00:00 8.7 4 Norte 14 Nordeste 0 -- -- 88
2020-11-28 03:00:00 8.6 13 Nordeste 15 Nordeste 0 -- -- 92
2020-11-28 02:00:00 8.1 7 Noroeste 9 Noroeste 0 -- -- 93
2020-11-28 01:00:00 8.8 9 Norte 13 Nordeste 0 -- -- 90
2020-11-28 00:00:00 9.7 8 Nordeste 23 Nordeste 0 -- -- 87
2020-11-27 23:00:00 10.2 18 Este 26 Nordeste 0 -- -- 85
2020-11-27 22:00:00 9.4 15 Nordeste 21 Este 0 -- -- 90
2020-11-27 21:00:00 9.4 6 Norte 22 Este 0 -- -- 86
2020-11-27 20:00:00 10 17 Este 31 Nordeste 0 -- -- 87
2020-11-27 19:00:00 10.4 22 Nordeste 35 Este 0 -- -- 86
2020-11-27 18:00:00 11 27 Este 41 Este 0 -- -- 85
2020-11-27 17:00:00 11.7 26 Este 43 Este 0 -- -- 82
2020-11-27 16:00:00 12.4 26 Este 43 Este 0 -- -- 76
2020-11-27 15:00:00 12.5 28 Este 48 Este 0 -- -- 80
2020-11-27 14:00:00 12.5 25 Nordeste 44 Este 0 -- -- 83
2020-11-27 13:00:00 12.9 31 Este 44 Nordeste 0 -- -- 78
2020-11-27 12:00:00 12.4 14 Nordeste 25 Nordeste 0 -- -- 88
2020-11-27 11:00:00 11.3 15 Nordeste 28 Este 0 -- -- 92
2020-11-27 10:00:00 10 17 Nordeste 24 Nordeste 0 -- -- 97
2020-11-27 09:00:00 8.4 14 Norte 21 Norte 0 -- -- 99
2020-11-27 08:00:00 8.3 17 Norte 22 Norte 0 -- -- 99
2020-11-27 07:00:00 8.4 12 Norte 17 Norte 0 -- -- 100
2020-11-27 06:00:00 8.4 12 Nordeste 17 Nordeste 0 -- -- 100
2020-11-27 05:00:00 8 12 Nordeste 19 Nordeste 0 -- -- 99
2020-11-27 04:00:00 7.6 12 Nordeste 16 Nordeste 0 -- -- 99
2020-11-27 03:00:00 7.5 12 Nordeste 16 Nordeste 0 -- -- 99
2020-11-27 02:00:00 7.3 13 Nordeste 18 Nordeste 0 -- -- 99
2020-11-27 01:00:00 7.4 13 Nordeste 18 Nordeste 0 -- -- 99
2020-11-27 00:00:00 7.8 11 Nordeste 19 Este 0 -- -- 98
2020-11-26 23:00:00 8.5 9 Este 18 Sudeste 0 -- -- 97
2020-11-26 22:00:00 8.7 10 Sudeste 24 Este 0 -- -- 97
2020-11-26 21:00:00 8.2 13 Este 22 Este 0 -- -- 98
2020-11-26 20:00:00 8.9 12 Este 21 Este 0 -- -- 94
2020-11-26 19:00:00 9.3 11 Sudeste 26 Sudeste 0.2 -- -- 95
2020-11-26 18:00:00 9.3 13 Sudeste 22 Sudeste 0 -- -- 98
2020-11-26 17:00:00 9.6 13 Sudeste 21 Sudeste 0.4 -- -- 98
2020-11-26 16:00:00 9.6 11 Sudeste 24 Sudeste 2.8 -- -- 97
2020-11-26 15:00:00 10 15 Sudeste 37 Sudeste 0.2 -- -- 94
2020-11-26 14:00:00 10.3 20 Sudeste 33 Sudeste 0 -- -- 93
2020-11-26 13:00:00 10 23 Sudeste 36 Sudeste 0.6 -- -- 96
2020-11-26 12:00:00 10 16 Sudeste 28 Este 0.4 -- -- 97
2020-11-26 11:00:00 9.8 17 Sudeste 26 Sudeste 0.2 -- -- 96
2020-11-26 10:00:00 9.7 15 Sudeste 27 Este 0 -- -- 96
2020-11-26 09:00:00 9 11 Este 22 Sudeste 0 -- -- 94
2020-11-26 08:00:00 8.8 14 Sudeste 23 Sudeste 0 -- -- 95
2020-11-26 07:00:00 8.8 17 Sudeste 32 Sudeste 0.2 -- -- 96
2020-11-26 06:00:00 8.9 22 Sudeste 32 Sudeste 0 -- -- 96
2020-11-26 05:00:00 9.1 22 Sudeste 37 Sudeste 0 -- -- 97
2020-11-26 04:00:00 9.4 23 Sudeste 31 Sudeste 0.2 -- -- 99
2020-11-26 03:00:00 8.7 14 Sudeste 26 Sudeste 1.8 -- -- 99
2020-11-26 02:00:00 9.6 15 Sudeste 26 Sudeste 2.2 -- -- 99
2020-11-26 01:00:00 9.8 19 Sur 46 Sur 3.8 -- -- 99
2020-11-26 00:00:00 10.2 24 Sudeste 38 Sudeste 1.4 -- -- 99
2020-11-25 23:00:00 10.4 22 Sudeste 31 Sudeste 0.2 -- -- 98
2020-11-25 22:00:00 10.7 14 Sudeste 28 Sudeste 0.8 -- -- 99
2020-11-25 21:00:00 10.8 22 Sudeste 33 Sudeste 0 -- -- 98
2020-11-25 20:00:00 11 20 Sudeste 31 Sudeste 0 -- -- 99
2020-11-25 19:00:00 10.9 25 Sudeste 39 Sudeste 0 -- -- 98
2020-11-25 18:00:00 11 27 Sudeste 41 Sudeste 0.4 -- -- 98
2020-11-25 17:00:00 11.6 24 Sudeste 44 Sudeste 0 -- -- 95
2020-11-25 16:00:00 12.2 30 Sudeste 44 Sudeste 0 -- -- 91
2020-11-25 15:00:00 12 28 Sudeste 42 Sudeste 0 -- -- 94
2020-11-25 14:00:00 11.6 25 Sudeste 38 Sudeste 0 -- -- 98
2020-11-25 13:00:00 10.8 25 Sudeste 36 Sudeste 0 -- -- 99
2020-11-25 12:00:00 10.2 25 Sudeste 34 Sudeste 0.4 -- -- 99
2020-11-25 11:00:00 9.6 19 Sudeste 27 Sudeste 3.6 -- -- 99
2020-11-25 10:00:00 9.3 18 Sudeste 39 Sudeste 2.4 -- -- 99
2020-11-25 09:00:00 9.3 20 Sudeste 29 Sudeste 2.8 -- -- 99
2020-11-25 08:00:00 9.5 23 Sudeste 33 Sudeste 2.2 -- -- 99
2020-11-25 07:00:00 9.4 17 Sudeste 25 Sudeste 2.4 -- -- 98
2020-11-25 06:00:00 9.4 19 Sudeste 26 Sudeste 0.8 -- -- 97
2020-11-25 05:00:00 9.2 17 Sudeste 23 Sudeste 0 -- -- 95
2020-11-25 04:00:00 8.5 8 Sudeste 13 Sudeste 0 -- -- 94
2020-11-25 03:00:00 8.4 10 Sudeste 15 Sudeste 0 -- -- 91
2020-11-25 02:00:00 8.1 11 Sudeste 15 Sudeste 0 -- -- 90
2020-11-25 01:00:00 9.1 8 Sudeste 13 Sur 0 -- -- 86
2020-11-25 00:00:00 9.8 8 Sudeste 12 Sur 0 -- -- 84
2020-11-24 23:00:00 10.5 8 Sur 9 Sur 0 -- -- 84
2020-11-24 22:00:00 10.2 7 Sur 10 Sur 0 -- -- 86
2020-11-24 21:00:00 10.3 7 Sur 12 Sur 0 -- -- 85
2020-11-24 20:00:00 11.3 6 Sur 8 Sur 0 -- -- 83
2020-11-24 19:00:00 11.6 4 Este 14 Nordeste 0 -- -- 81
2020-11-24 18:00:00 12.5 8 Nordeste 14 Noroeste 0 -- -- 81
2020-11-24 17:00:00 14.3 2 Noroeste 10 Oeste 0 -- -- 70
2020-11-24 16:00:00 15.8 5 Sur 12 Oeste 0 -- -- 63
2020-11-24 15:00:00 15.5 7 Oeste 13 Oeste 0 -- -- 66
2020-11-24 14:00:00 15.3 6 Sudoeste 12 Sur 0 -- -- 66
2020-11-24 13:00:00 14.4 5 Sudoeste 9 Sur 0 -- -- 68
2020-11-24 12:00:00 13.4 7 Sur 10 Sur 0 -- -- 70
2020-11-24 11:00:00 10.8 5 Sur 9 Sur 0 -- -- 78
2020-11-24 10:00:00 9.5 7 Sudeste 10 Sudeste 0 -- -- 84
2020-11-24 09:00:00 6.8 7 Sudeste 14 Este 0 -- -- 91
2020-11-24 08:00:00 7.4 9 Sudeste 14 Sudeste 0 -- -- 90
2020-11-24 07:00:00 7.5 6 Este 7 Este 0 -- -- 90
2020-11-24 06:00:00 8.2 6 Este 8 Sudeste 0 -- -- 88
2020-11-24 05:00:00 8.7 4 Sudeste 9 Este 0 -- -- 86
2020-11-24 04:00:00 8 0 Calma -- -- 0 -- -- 89
2020-11-24 03:00:00 10.1 5 Sudeste 11 Este 0 -- -- 80
2020-11-24 02:00:00 9.4 7 Este 10 Este 0 -- -- 82
2020-11-24 01:00:00 9.6 6 Este 16 Este 0 -- -- 80
2020-11-24 00:00:00 9.6 13 Este 15 Este 0 -- -- 81
2020-11-23 23:00:00 9.9 13 Este 19 Este 0 -- -- 77
2020-11-23 22:00:00 10.5 12 Este 14 Este 0 -- -- 74
2020-11-23 21:00:00 11.6 8 Este -- -- 0 -- -- 71
2020-11-23 20:00:00 12.1 7 Nordeste 10 Este 0 -- -- 71
2020-11-23 19:00:00 11.9 9 Este 11 Este 0 -- -- 75
2020-11-23 18:00:00 13.8 9 Nordeste 11 Nordeste 0 -- -- 70
2020-11-23 17:00:00 16.1 5 Nordeste 10 Norte 0 -- -- 63
2020-11-23 16:00:00 16.7 5 Nordeste 10 Nordeste 0 -- -- 59
2020-11-23 15:00:00 16.6 2 Nordeste 9 Noroeste 0 -- -- 63
2020-11-23 14:00:00 16.1 6 Noroeste 10 Noroeste 0 -- -- 63
2020-11-23 13:00:00 15.7 4 Sudeste 11 Sudeste 0 -- -- 63
2020-11-23 12:00:00 13.7 5 Sudeste 17 Este 0 -- -- 75
2020-11-23 11:00:00 10.9 11 Este 19 Este 0 -- -- 83
2020-11-23 10:00:00 8.5 9 Este 13 Este 0 -- -- 88
2020-11-23 09:00:00 6.1 7 Nordeste 12 Este 0 -- -- 93
2020-11-23 08:00:00 6.8 12 Este 21 Nordeste 0 -- -- 91
2020-11-23 07:00:00 7.1 18 Nordeste 22 Nordeste 0 -- -- 91
2020-11-23 06:00:00 7.7 15 Nordeste 22 Este 0 -- -- 88
2020-11-23 05:00:00 8.2 16 Este 20 Este 0 -- -- 85
2020-11-23 04:00:00 8.5 13 Nordeste 15 Este 0 -- -- 83
2020-11-23 03:00:00 9.9 11 Este 13 Este 0 -- -- 77
2020-11-23 02:00:00 10.4 -- -- -- -- 0 -- -- 74
2020-11-23 01:00:00 10.8 9 Este 12 Este 0 -- -- 72
2020-11-23 00:00:00 10.3 11 Este 12 Este 0 -- -- 76
2020-11-22 23:00:00 11.7 7 Nordeste -- -- 0 -- -- 71
2020-11-22 22:00:00 11.7 7 Nordeste 10 Nordeste 0 -- -- 71
2020-11-22 21:00:00 11.7 10 Nordeste -- -- 0 -- -- 71
2020-11-22 20:00:00 11.7 10 Nordeste 12 Nordeste 0 -- -- 70
2020-11-22 19:00:00 12.6 9 Nordeste 10 Nordeste 0 -- -- 64
2020-11-22 18:00:00 14.5 5 Nordeste 7 Nordeste 0 -- -- 57
2020-11-22 17:00:00 16.2 6 Nordeste 11 Nordeste 0 -- -- 55
2020-11-22 16:00:00 16.8 6 Norte 13 Nordeste 0 -- -- 52
2020-11-22 15:00:00 16.5 4 Sudeste 13 Norte 0 -- -- 53
2020-11-22 14:00:00 15.8 5 Norte 10 Nordeste 0 -- -- 58
2020-11-22 13:00:00 14.9 6 Nordeste 12 Nordeste 0 -- -- 60
2020-11-22 12:00:00 14 4 Este 13 Nordeste 0 -- -- 64
2020-11-22 11:00:00 11.7 13 Este 21 Este 0 -- -- 71
2020-11-22 10:00:00 9.9 17 Este 21 Este 0 -- -- 75
2020-11-22 09:00:00 7.6 12 Este 15 Este 0 -- -- 82
2020-11-22 08:00:00 7.5 13 Este 21 Este 0 -- -- 80
2020-11-22 07:00:00 8 15 Este 23 Nordeste 0 -- -- 77
2020-11-22 06:00:00 8.7 17 Este 21 Este 0 -- -- 76
2020-11-22 05:00:00 8.8 16 Este 21 Este 0 -- -- 74
2020-11-22 04:00:00 9.4 16 Este 24 Este 0 -- -- 72
2020-11-22 03:00:00 9.8 17 Este 25 Este 0 -- -- 71
2020-11-22 02:00:00 10 18 Este 23 Este 0 -- -- 70
2020-11-22 01:00:00 9.7 17 Este 21 Nordeste 0 -- -- 70
2020-11-22 00:00:00 9.6 15 Este 19 Este 0 -- -- 69
2020-11-21 23:00:00 10.1 16 Este 22 Este 0 -- -- 63
2020-11-21 22:00:00 10.2 17 Este 23 Este 0 -- -- 59
2020-11-21 21:00:00 10.4 18 Este 23 Este 0 -- -- 60
2020-11-21 20:00:00 11.2 19 Este 24 Este 0 -- -- 61
2020-11-21 19:00:00 11.8 18 Este 23 Este 0 -- -- 62
2020-11-21 18:00:00 13.4 13 Nordeste 17 Este 0 -- -- 57
2020-11-21 17:00:00 15.7 11 Este 16 Este 0 -- -- 49
2020-11-21 16:00:00 16.6 10 Este 18 Este 0 -- -- 46
2020-11-21 15:00:00 16.4 10 Nordeste 19 Este 0 -- -- 46
2020-11-21 14:00:00 15.7 13 Este 18 Este 0 -- -- 48
2020-11-21 13:00:00 14.5 14 Este 23 Este 0 -- -- 49
2020-11-21 12:00:00 13.4 16 Este 23 Este 0 -- -- 51
2020-11-21 11:00:00 11.8 16 Este 29 Nordeste 0 -- -- 54
2020-11-21 10:00:00 9.7 22 Nordeste 33 Este 0 -- -- 63
2020-11-21 09:00:00 7.4 15 Este 21 Este 0 -- -- 74
2020-11-21 08:00:00 6.7 19 Este 26 Este 0 -- -- 78
2020-11-21 07:00:00 7.5 21 Este 29 Este 0 -- -- 75
2020-11-21 06:00:00 7.6 15 Este 21 Este 0 -- -- 80
2020-11-21 05:00:00 8.8 18 Nordeste 27 Este 0 -- -- 75
2020-11-21 04:00:00 7.6 12 Nordeste 16 Nordeste 0 -- -- 83
2020-11-21 03:00:00 9.3 16 Nordeste 22 Nordeste 0 -- -- 74
2020-11-21 02:00:00 9.1 19 Nordeste 22 Nordeste 0 -- -- 77
2020-11-21 01:00:00 9.3 8 Norte 22 Nordeste 0 -- -- 73
2020-11-21 00:00:00 9.8 19 Nordeste 24 Nordeste 0 -- -- 73
2020-11-20 23:00:00 10.3 17 Nordeste 21 Nordeste 0 -- -- 75
2020-11-20 22:00:00 11.1 16 Nordeste 19 Nordeste 0 -- -- 73
2020-11-20 21:00:00 12 13 Nordeste 19 Nordeste 0 -- -- 70
2020-11-20 20:00:00 12.9 6 Nordeste 12 Este 0 -- -- 74
2020-11-20 19:00:00 13.8 11 Este 15 Nordeste 0 -- -- 73
2020-11-20 18:00:00 16.3 4 Norte 22 Nordeste 0 -- -- 60
2020-11-20 17:00:00 18 19 Nordeste 26 Nordeste 0 -- -- 48
2020-11-20 16:00:00 18.7 16 Nordeste 23 Nordeste 0 -- -- 48
2020-11-20 15:00:00 18.5 17 Nordeste 24 Nordeste 0 -- -- 51
2020-11-20 14:00:00 18.2 14 Nordeste 20 Nordeste 0 -- -- 55
2020-11-20 13:00:00 17.1 13 Nordeste 18 Nordeste 0 -- -- 62
2020-11-20 12:00:00 16.4 12 Nordeste 21 Nordeste 0 -- -- 63
2020-11-20 11:00:00 14.9 14 Nordeste 20 Nordeste 0 -- -- 67
2020-11-20 10:00:00 12.7 13 Nordeste 20 Nordeste 0 -- -- 79
2020-11-20 09:00:00 10.3 14 Nordeste 20 Nordeste 0 -- -- 89
2020-11-20 08:00:00 10.5 17 Nordeste 22 Nordeste 0 -- -- 87
2020-11-20 07:00:00 11.1 14 Nordeste 21 Nordeste 0 -- -- 87
2020-11-20 06:00:00 11.7 16 Nordeste 25 Nordeste 0 -- -- 87
2020-11-20 05:00:00 12.1 18 Nordeste 24 Nordeste 0 -- -- 87
2020-11-20 04:00:00 12.7 20 Nordeste 31 Nordeste 0 -- -- 85
2020-11-20 03:00:00 12.2 17 Nordeste 23 Nordeste 0 -- -- 87
2020-11-20 02:00:00 13.2 21 Nordeste 25 Nordeste 0 -- -- 82
2020-11-20 01:00:00 13.8 18 Nordeste 29 Nordeste 0 -- -- 80
2020-11-20 00:00:00 14.2 21 Nordeste 26 Nordeste 0 -- -- 79
2020-11-19 23:00:00 13.9 15 Nordeste 21 Norte 0 -- -- 82
2020-11-19 22:00:00 14.7 16 Norte 20 Norte 0 -- -- 82
2020-11-19 21:00:00 15.9 10 Norte -- -- 0 -- -- 77
2020-11-19 20:00:00 16.5 12 Norte 15 Nordeste 0 -- -- 74
2020-11-19 19:00:00 17.1 11 Norte 13 Norte 0 -- -- 74
2020-11-19 18:00:00 18.6 11 Nordeste 19 Norte 0 -- -- 67
2020-11-19 17:00:00 21 12 Nordeste 21 Nordeste 0 -- -- 60
2020-11-19 16:00:00 21.3 17 Nordeste 27 Nordeste 0 -- -- 56
2020-11-19 15:00:00 20.9 15 Nordeste 23 Nordeste 0 -- -- 57
2020-11-19 14:00:00 19.8 19 Nordeste 30 Nordeste 0 -- -- 62
2020-11-19 13:00:00 18.3 20 Nordeste 35 Nordeste 0 -- -- 65
2020-11-19 12:00:00 14.6 15 Nordeste 26 Nordeste 0 -- -- 100
2020-11-19 11:00:00 11.4 12 Nordeste 15 Nordeste 0 -- -- 100
2020-11-19 10:00:00 10.4 2 Norte 5 Noroeste 0 -- -- 100
2020-11-19 09:00:00 10.1 3 Nordeste 11 Este 0 -- -- 100
2020-11-19 08:00:00 10.1 9 Nordeste 13 Nordeste 0 -- -- 100
2020-11-19 07:00:00 10.1 6 Norte 10 Nordeste 0 -- -- 100
2020-11-19 06:00:00 10.2 5 Nordeste 14 Nordeste 0 -- -- 100
2020-11-19 05:00:00 10.7 8 Nordeste 18 Este 0 -- -- 100
2020-11-19 04:00:00 10.7 8 Nordeste 15 Nordeste 0 -- -- 100
2020-11-19 03:00:00 10.4 8 Nordeste 12 Nordeste 0 -- -- 100
2020-11-19 02:00:00 10.3 6 Nordeste 22 Este 0 -- -- 100
2020-11-19 01:00:00 10 14 Este 24 Este 0 -- -- 98
2020-11-19 00:00:00 11 17 Nordeste 22 Este 0 -- -- 96
2020-11-18 23:00:00 11.8 18 Este 22 Este 0 -- -- 93
2020-11-18 22:00:00 11.9 18 Nordeste 22 Nordeste 0 -- -- 93
2020-11-18 21:00:00 12.4 17 Nordeste 20 Nordeste 0 -- -- 91
2020-11-18 20:00:00 12.7 14 Nordeste 17 Nordeste 0 -- -- 93
2020-11-18 19:00:00 13.7 12 Nordeste 15 Nordeste 0 -- -- 91
2020-11-18 18:00:00 15.4 10 Nordeste 13 Nordeste 0 -- -- 87
2020-11-18 17:00:00 17.2 10 Nordeste 15 Nordeste 0 -- -- 80
2020-11-18 16:00:00 18.1 7 Nordeste 17 Este 0 -- -- 78
2020-11-18 15:00:00 17.4 12 Nordeste 20 Este 0 -- -- 82
2020-11-18 14:00:00 15.7 10 Este 20 Este 0 -- -- 91
2020-11-18 13:00:00 13.9 9 Nordeste 16 Nordeste 0 -- -- 100
2020-11-18 12:00:00 12.6 9 Nordeste 21 Nordeste 0 -- -- 100
2020-11-18 11:00:00 11.9 15 Nordeste 22 Este 0 -- -- 100
2020-11-18 10:00:00 10.8 17 Este 22 Nordeste 0 -- -- 100
2020-11-18 09:00:00 9.9 14 Nordeste 19 Nordeste 0 -- -- 100
2020-11-18 08:00:00 9.3 14 Este 18 Nordeste 0 -- -- 99
2020-11-18 07:00:00 9.7 13 Este 17 Nordeste 0 -- -- 97
2020-11-18 06:00:00 11 12 Este 15 Este 0 -- -- 95
2020-11-18 05:00:00 12 10 Este 15 Este 0 -- -- 93
2020-11-18 04:00:00 12.8 9 Este 14 Este 0 -- -- 92
2020-11-18 03:00:00 12 11 Este 14 Este 0 -- -- 96
2020-11-18 02:00:00 12.8 9 Este 11 Este 0 -- -- 92
2020-11-18 01:00:00 13.1 6 Este 9 Este 0 -- -- 97
2020-11-18 00:00:00 13.3 4 Este 8 Sudeste 0 -- -- 93
2020-11-17 23:00:00 14 4 Sudeste 12 Sudeste 0 -- -- 95
2020-11-17 22:00:00 14 9 Sudeste 15 Este 0 -- -- 94
2020-11-17 21:00:00 13.5 11 Este 14 Este 0 -- -- 95
2020-11-17 20:00:00 13.7 13 Este 16 Este 0 -- -- 95
2020-11-17 19:00:00 14.2 11 Este 13 Este 0 -- -- 95
2020-11-17 18:00:00 16.1 6 Este 10 Este 0 -- -- 88
2020-11-17 17:00:00 18 3 Sur 9 Sudeste 0 -- -- 83
2020-11-17 16:00:00 16.6 5 Este 12 Este 0 -- -- 87
2020-11-17 15:00:00 16.3 6 Sudeste 15 Sudeste 0 -- -- 87
2020-11-17 14:00:00 15.3 8 Sudeste 13 Este 0 -- -- 90
2020-11-17 13:00:00 14.2 6 Este 14 Sudeste 0 -- -- 96
2020-11-17 12:00:00 13.6 8 Este 14 Este 0 -- -- 97
2020-11-17 11:00:00 14 9 Este 12 Este 0 -- -- 100
2020-11-17 10:00:00 11.6 4 Este 6 Este 0.2 -- -- 100
2020-11-17 09:00:00 10.7 5 Este 15 Este 0 -- -- 100
2020-11-17 08:00:00 9.8 8 Este 13 Este 0 -- -- 100
2020-11-17 07:00:00 9.5 12 Nordeste 17 Nordeste 0 -- -- 100
2020-11-17 06:00:00 9.6 11 Este 13 Este 0 -- -- 99
2020-11-17 05:00:00 11 9 Nordeste 11 Nordeste 0 -- -- 97
2020-11-17 04:00:00 13 5 Este 10 Este 0 -- -- 99
2020-11-17 03:00:00 12.5 9 Este 11 Este 0 -- -- 99
2020-11-17 02:00:00 13.6 4 Sudeste 6 Este 0 -- -- 99
2020-11-17 01:00:00 13.6 4 Sudeste 6 Sudeste 0 -- -- 99
2020-11-17 00:00:00 13.4 4 Sudeste 6 Sudeste 0 -- -- 99
2020-11-16 23:00:00 13.3 4 Sudeste 7 Sur 0 -- -- 98
2020-11-16 22:00:00 13.5 4 Sudoeste 6 Sur 0 -- -- 97
2020-11-16 21:00:00 13.9 3 Oeste 5 Noroeste 0 -- -- 92
2020-11-16 20:00:00 14.3 4 Norte 5 Norte 0 -- -- 93
2020-11-16 19:00:00 14.8 4 Noroeste 5 Noroeste 0 -- -- 91
2020-11-16 18:00:00 16.4 3 Oeste 9 Oeste 0 -- -- 85
2020-11-16 17:00:00 17.6 4 Oeste 10 Sudoeste 0 -- -- 81
2020-11-16 16:00:00 17.6 6 Sudoeste 11 Sudoeste 0 -- -- 84
2020-11-16 15:00:00 17.5 5 Sudoeste 13 Sudoeste 0 -- -- 86
2020-11-16 14:00:00 16.2 6 Sudoeste 12 Oeste 0 -- -- 90
2020-11-16 13:00:00 14.7 4 Sudoeste 9 Sudoeste 0 -- -- 100
2020-11-16 12:00:00 14.3 4 Sudoeste 10 Norte 0 -- -- 100
2020-11-16 11:00:00 13.9 7 Noroeste 10 Noroeste 0 -- -- 100
2020-11-16 10:00:00 13.2 8 Noroeste 14 Norte 0 -- -- 100
2020-11-16 09:00:00 13 9 Noroeste 13 Noroeste 0.2 -- -- 100
2020-11-16 08:00:00 12.9 10 Noroeste 13 Noroeste 0 -- -- 100
2020-11-16 07:00:00 12.8 5 Oeste 8 Oeste 0 -- -- 100
2020-11-16 06:00:00 13.6 0 Calma 10 Noroeste 0 -- -- 100
2020-11-16 05:00:00 14.2 9 Noroeste 13 Noroeste 0 -- -- 100
2020-11-16 04:00:00 14.7 5 Oeste 10 Oeste 0 -- -- 99
2020-11-16 03:00:00 14.8 5 Oeste 8 Oeste 0 -- -- 98
2020-11-16 02:00:00 14.6 8 Oeste 12 Noroeste 0 -- -- 97
2020-11-16 01:00:00 15.1 9 Oeste 13 Noroeste 0 -- -- 95
2020-11-16 00:00:00 15.7 12 Noroeste 13 Noroeste 0 -- -- 94
2020-11-15 23:00:00 15.6 10 Norte 10 Norte 0 -- -- 95
2020-11-15 22:00:00 15.9 8 Norte 8 Norte 0 -- -- 94
2020-11-15 21:00:00 16.3 7 Norte 11 Nordeste 0 -- -- 92
2020-11-15 20:00:00 17.1 8 Nordeste 14 Nordeste 0 -- -- 92
2020-11-15 19:00:00 18.1 3 Sudeste 6 Sudeste 0 -- -- 85
2020-11-15 18:00:00 18.5 0 Calma 4 Noroeste 0 -- -- 82
2020-11-15 17:00:00 18.9 5 Noroeste 19 Sur 0 -- -- 82
2020-11-15 16:00:00 19.9 18 Sudoeste 27 Sudoeste 0 -- -- 78
2020-11-15 15:00:00 19.7 19 Sur 27 Sudoeste 0 -- -- 79
2020-11-15 14:00:00 19.2 19 Sur 27 Sur 0 -- -- 82
2020-11-15 13:00:00 18.1 21 Sur 28 Sur 0 -- -- 86
2020-11-15 12:00:00 17.4 20 Sur 31 Sur 0 -- -- 90
2020-11-15 11:00:00 16.5 21 Sur 32 Sur 0 -- -- 93
2020-11-15 10:00:00 16 18 Sur 26 Sur 0 -- -- 97
2020-11-15 09:00:00 15.3 19 Sur 23 Sur 0 -- -- 100
2020-11-15 08:00:00 15 17 Sur 24 Sur 0 -- -- 100
2020-11-15 07:00:00 15.1 17 Sur 24 Sur 0 -- -- 100
2020-11-15 06:00:00 15.1 18 Sur 27 Sur 0 -- -- 99
2020-11-15 05:00:00 15.3 16 Sur 21 Sur 0 -- -- 99
2020-11-15 04:00:00 15.2 14 Sur 18 Sur 0 -- -- 99
2020-11-15 03:00:00 15.1 15 Sur 21 Sur 0 -- -- 99
2020-11-15 02:00:00 15.1 14 Sur 24 Sur 0 -- -- 99
2020-11-15 01:00:00 14.9 14 Sur 20 Sur 0 -- -- 98
2020-11-15 00:00:00 14.7 12 Sur 18 Sur 0 -- -- 96
2020-11-14 23:00:00 14.5 8 Sudeste 13 Sur 0 -- -- 96
2020-11-14 22:00:00 14.1 9 Sudeste 11 Sudeste 0 -- -- 95
2020-11-14 21:00:00 14.8 6 Sudeste 9 Sur 0 -- -- 92
2020-11-14 20:00:00 15.3 4 Sudeste 5 Sudeste 0 -- -- 88
2020-11-14 19:00:00 15.2 0 Calma 12 Oeste 0 -- -- 87
2020-11-14 18:00:00 15.5 9 Oeste 19 Oeste 0 -- -- 86
2020-11-14 17:00:00 16.4 13 Oeste 21 Sudoeste 0 -- -- 89
2020-11-14 16:00:00 16.3 10 Sudoeste 18 Sur 0 -- -- 94
2020-11-14 15:00:00 15.7 17 Sur 22 Sur 0.2 -- -- 98
2020-11-14 14:00:00 15.3 12 Sur 18 Sudoeste 0 -- -- 97
2020-11-14 13:00:00 15.2 10 Sudeste 19 Sudeste 0 -- -- 98
2020-11-14 12:00:00 14.5 13 Sudeste 17 Sudeste 0.2 -- -- 99
2020-11-14 11:00:00 14 11 Sudeste 16 Sudeste 0.6 -- -- 97
2020-11-14 10:00:00 14.1 12 Sudeste 16 Sudeste 0 -- -- 94
2020-11-14 09:00:00 13.5 10 Sudeste 16 Sudeste 0 -- -- 95
2020-11-14 08:00:00 13.3 9 Sudeste 16 Sudeste 0 -- -- 95
2020-11-14 07:00:00 13.3 11 Sudeste 16 Sudeste 0 -- -- 94
2020-11-14 06:00:00 13.3 10 Sudeste 18 Sudeste 0 -- -- 93
2020-11-14 05:00:00 13.4 11 Sudeste 17 Sudeste 0 -- -- 92
2020-11-14 04:00:00 13.6 9 Sudeste 13 Sudeste 0 -- -- 89
2020-11-14 03:00:00 13.8 9 Sudeste 15 Sudeste 0 -- -- 87
2020-11-14 02:00:00 13.7 8 Sudeste 14 Sudeste 0 -- -- 86
2020-11-14 01:00:00 13.7 9 Sudeste 17 Sudeste 0 -- -- 84
2020-11-14 00:00:00 13.7 11 Sudeste 18 Sudeste 0 -- -- 84
2020-11-13 23:00:00 13.8 8 Este 14 Este 0 -- -- 85
2020-11-13 22:00:00 13.4 9 Este 16 Este 0 -- -- 88
2020-11-13 21:00:00 13.3 13 Este 16 Este 0 -- -- 88
2020-11-13 20:00:00 13.3 11 Nordeste 15 Nordeste 0 -- -- 88
2020-11-13 19:00:00 13.3 10 Este 14 Este 0 -- -- 87
2020-11-13 18:00:00 13.7 11 Este 21 Nordeste 0 -- -- 85
2020-11-13 17:00:00 14.3 15 Nordeste 19 Nordeste 0 -- -- 83
2020-11-13 16:00:00 14.8 10 Este 18 Este 0 -- -- 81
2020-11-13 15:00:00 15.2 13 Este 19 Este 0 -- -- 79
2020-11-13 14:00:00 15.6 7 Sudeste 13 Sudeste 0 -- -- 73
2020-11-13 13:00:00 15.4 11 Sudeste 18 Sudeste 0 -- -- 74
2020-11-13 12:00:00 13.9 8 Sudeste 17 Sudeste 0 -- -- 76
2020-11-13 11:00:00 13.1 9 Sudeste 19 Este 0 -- -- 80
2020-11-13 10:00:00 11.6 15 Este 19 Este 0 -- -- 88
2020-11-13 09:00:00 10.6 12 Este 15 Este 0 -- -- 86
2020-11-13 08:00:00 10.8 9 Este 15 Este 0 -- -- 83
2020-11-13 07:00:00 10.9 8 Este 15 Este 0 -- -- 85
2020-11-13 06:00:00 10.4 11 Este 16 Este 0 -- -- 91
2020-11-13 05:00:00 10.5 12 Este 13 Este 0 -- -- 90
2020-11-13 04:00:00 11 9 Este 15 Este 0 -- -- 87
2020-11-13 03:00:00 11.5 8 Este 15 Este 0 -- -- 85
2020-11-13 02:00:00 12.4 8 Este 24 Este 0 -- -- 83
2020-11-13 01:00:00 12.5 16 Este 26 Este 0 -- -- 83
2020-11-13 00:00:00 11.8 17 Este 23 Este 0 -- -- 86
2020-11-12 23:00:00 12.1 18 Este 26 Este 0 -- -- 84
2020-11-12 22:00:00 12.2 19 Este 25 Este 0 -- -- 86
2020-11-12 21:00:00 12.6 17 Este 27 Este 0 -- -- 86
2020-11-12 20:00:00 12.5 18 Este 25 Este 0 -- -- 84
2020-11-12 19:00:00 12.9 12 Nordeste 16 Nordeste 0 -- -- 83
2020-11-12 18:00:00 14.6 11 Nordeste 16 Este 0 -- -- 77
2020-11-12 17:00:00 16.3 12 Nordeste 19 Nordeste 0 -- -- 69
2020-11-12 16:00:00 17 14 Nordeste 22 Este 0 -- -- 69
2020-11-12 15:00:00 17.4 15 Este 22 Este 0 -- -- 69
2020-11-12 14:00:00 16.6 13 Este 21 Este 0 -- -- 73
2020-11-12 13:00:00 15.2 13 Este 22 Este 0 -- -- 78
2020-11-12 12:00:00 13.9 14 Este 23 Este 0 -- -- 80
2020-11-12 11:00:00 12.5 15 Este 24 Este 0 -- -- 86
2020-11-12 10:00:00 11.7 18 Este 23 Este 0 -- -- 88
2020-11-12 09:00:00 11.1 14 Este 25 Este 0 -- -- 88
2020-11-12 08:00:00 11 17 Nordeste 23 Este 0 -- -- 87
2020-11-12 07:00:00 11.5 14 Este 22 Este 0 -- -- 86
2020-11-12 06:00:00 11 15 Nordeste 19 Este 0 -- -- 90
2020-11-12 05:00:00 10.9 13 Nordeste 17 Nordeste 0 -- -- 90
2020-11-12 04:00:00 11.3 13 Nordeste 17 Este 0 -- -- 88
2020-11-12 03:00:00 11 13 Este 16 Este 0 -- -- 88
2020-11-12 02:00:00 11.1 13 Este 16 Este 0 -- -- 87
2020-11-12 01:00:00 11.4 14 Nordeste 17 Nordeste 0 -- -- 88
2020-11-12 00:00:00 11.7 13 Nordeste 15 Nordeste 0 -- -- 85
2020-11-11 23:00:00 13.1 8 Este 14 Este 0 -- -- 79
2020-11-11 22:00:00 13.4 9 Este 15 Este 0 -- -- 79
2020-11-11 21:00:00 13.7 8 Este 13 Este 0 -- -- 79
2020-11-11 20:00:00 13.6 11 Este 14 Este 0 -- -- 80
2020-11-11 19:00:00 14 11 Este 13 Este 0 -- -- 80
2020-11-11 18:00:00 15.5 9 Este 12 Este 0 -- -- 77
2020-11-11 17:00:00 17.3 5 Este 12 Este 0 -- -- 70
2020-11-11 16:00:00 17.7 9 Este 14 Este 0 -- -- 67
2020-11-11 15:00:00 17.5 7 Este 15 Este 0 -- -- 67
2020-11-11 14:00:00 17.6 6 Este 14 Este 0 -- -- 68
2020-11-11 13:00:00 17.6 3 Sudeste 14 Este 0 -- -- 65
2020-11-11 12:00:00 16.1 9 Este 14 Este 0 -- -- 71
2020-11-11 11:00:00 14.7 8 Sudeste 16 Este 0 -- -- 76
2020-11-11 10:00:00 12.6 9 Sudeste 16 Este 0 -- -- 83
2020-11-11 09:00:00 9.7 10 Este 16 Este 0 -- -- 93
2020-11-11 08:00:00 8.6 12 Este 17 Este 0 -- -- 94
2020-11-11 07:00:00 8.8 13 Este 19 Este 0 -- -- 94
2020-11-11 06:00:00 8.8 14 Este 18 Este 0 -- -- 95
2020-11-11 05:00:00 9.4 14 Este 17 Este 0 -- -- 93
2020-11-11 04:00:00 10.2 12 Este 18 Este 0 -- -- 88
2020-11-11 03:00:00 10.7 9 Este 19 Este 0 -- -- 89
2020-11-11 02:00:00 10.9 15 Este 23 Este 0 -- -- 92
2020-11-11 01:00:00 11.2 17 Nordeste 20 Este 0 -- -- 92
2020-11-11 00:00:00 11.5 17 Nordeste 18 Nordeste 0 -- -- 90
2020-11-10 23:00:00 12 17 Nordeste 18 Nordeste 0 -- -- 90
2020-11-10 22:00:00 12.2 15 Nordeste 18 Nordeste 0 -- -- 88
2020-11-10 21:00:00 12.3 13 Nordeste 14 Nordeste 0 -- -- 88
2020-11-10 20:00:00 12.8 10 Nordeste 13 Nordeste 0 -- -- 86
2020-11-10 19:00:00 13.4 9 Nordeste 12 Nordeste 0 -- -- 85
2020-11-10 18:00:00 15.6 5 Este 9 Este 0 -- -- 78
2020-11-10 17:00:00 16.6 4 Este 11 Este 0 -- -- 70
2020-11-10 16:00:00 16.6 0 Calma 10 Este 0 -- -- 74
2020-11-10 15:00:00 15.6 5 Este 14 Este 0 -- -- 79
2020-11-10 14:00:00 14.5 7 Este 13 Este 0 -- -- 86
2020-11-10 13:00:00 12.9 3 Nordeste 13 Nordeste 0 -- -- 94
2020-11-10 12:00:00 11.9 7 Este 14 Este 0 -- -- 97
2020-11-10 11:00:00 11.8 9 Nordeste 13 Nordeste 0 -- -- 96
2020-11-10 10:00:00 11.3 3 Sudeste 10 Este 0 -- -- 100
2020-11-10 09:00:00 8 6 Nordeste 9 Nordeste 0 -- -- 100
2020-11-10 08:00:00 8.5 5 Norte 10 Nordeste 0 -- -- 99
2020-11-10 07:00:00 9.5 8 Nordeste 13 Nordeste 0 -- -- 99
2020-11-10 06:00:00 9.6 13 Nordeste 15 Nordeste 0 -- -- 99
2020-11-10 05:00:00 9.8 12 Nordeste 14 Nordeste 0 -- -- 99
2020-11-10 04:00:00 10.5 7 Norte 9 Norte 0 -- -- 99
2020-11-10 03:00:00 10.9 5 Noroeste 8 Noroeste 0 -- -- 99
2020-11-10 02:00:00 11.1 8 Noroeste 9 Noroeste 0 -- -- 96
2020-11-10 01:00:00 11.6 5 Noroeste 7 Noroeste 0 -- -- 93
2020-11-10 00:00:00 12.1 4 Norte -- -- 0 -- -- 91
2020-11-09 23:00:00 12.4 4 Noroeste 8 Noroeste 0 -- -- 90
2020-11-09 22:00:00 12.8 5 Noroeste -- -- 0 -- -- 90
2020-11-09 21:00:00 12.3 5 Oeste 9 Oeste 0 -- -- 93
2020-11-09 20:00:00 12.5 8 Oeste 9 Oeste 0 -- -- 92
2020-11-09 19:00:00 13.1 7 Sudoeste 9 Sudoeste 0 -- -- 90
2020-11-09 18:00:00 15 5 Sudoeste 8 Sur 0 -- -- 83
2020-11-09 17:00:00 15 0 Calma 6 Noroeste 0 -- -- 85
2020-11-09 16:00:00 14.7 5 Nordeste 14 Nordeste 0.2 -- -- 90
2020-11-09 15:00:00 15.7 8 Nordeste 15 Nordeste 0 -- -- 84
2020-11-09 14:00:00 15.9 4 Nordeste 10 Este 0 -- -- 80
2020-11-09 13:00:00 15.4 7 Sur 12 Sur 0 -- -- 80
2020-11-09 12:00:00 14 8 Sur 17 Sur 0 -- -- 91
2020-11-09 11:00:00 13.6 6 Sudeste 12 Sudeste 0 -- -- 95
2020-11-09 10:00:00 12.3 4 Sudeste 7 Este 0 -- -- 100
2020-11-09 09:00:00 11.5 0 Calma 7 Sur 0.2 -- -- 100
2020-11-09 08:00:00 11.4 4 Oeste 9 Oeste 0 -- -- 100
2020-11-09 07:00:00 11.1 7 Noroeste 11 Oeste 0 -- -- 100
2020-11-09 06:00:00 11.2 6 Oeste 9 Sudoeste 0 -- -- 100
2020-11-09 05:00:00 11.5 7 Oeste 8 Oeste 0 -- -- 100
2020-11-09 04:00:00 11.7 5 Oeste 8 Oeste 0 -- -- 100
2020-11-09 03:00:00 11.6 6 Oeste 9 Oeste 0 -- -- 100
2020-11-09 02:00:00 12.1 8 Oeste 12 Oeste 0 -- -- 100
2020-11-09 01:00:00 12.9 9 Oeste 13 Sudoeste 0 -- -- 99
2020-11-09 00:00:00 13.6 9 Sur 12 Sur 0 -- -- 100
2020-11-08 23:00:00 13.6 9 Sur 15 Sur 0 -- -- 99
2020-11-08 22:00:00 13.7 9 Sur 13 Sudeste 0.6 -- -- 99
2020-11-08 21:00:00 13.8 8 Sur 17 Sur 0.4 -- -- 99
2020-11-08 20:00:00 13.8 12 Sur 25 Sur 0.4 -- -- 99
2020-11-08 19:00:00 13.7 16 Sur 22 Sur 1.4 -- -- 99
2020-11-08 18:00:00 13.7 13 Sur 31 Sur 1.8 -- -- 98
2020-11-08 17:00:00 14.2 20 Sur 28 Sur 2 -- -- 96
2020-11-08 16:00:00 15.1 20 Sur 33 Sur 0.8 -- -- 90
2020-11-08 15:00:00 16.1 23 Sur 37 Sur 0 -- -- 83
2020-11-08 14:00:00 15.3 20 Sur 36 Sur 0 -- -- 86
2020-11-08 13:00:00 14.8 18 Sudeste 32 Sudeste 0 -- -- 87
2020-11-08 12:00:00 15 25 Sur 36 Sur 0 -- -- 85
2020-11-08 11:00:00 14.1 24 Sur 39 Sudeste 0 -- -- 89
2020-11-08 10:00:00 13.9 27 Sudeste 38 Sur 0 -- -- 88
2020-11-08 09:00:00 12.1 25 Sudeste 37 Sudeste 0 -- -- 95
2020-11-08 08:00:00 12 21 Sudeste 29 Sudeste 0 -- -- 95
2020-11-08 07:00:00 12 19 Sudeste 28 Sudeste 0 -- -- 94
2020-11-08 06:00:00 12 19 Sudeste 28 Sudeste 0 -- -- 95
2020-11-08 05:00:00 12.4 20 Sudeste 30 Sudeste 0 -- -- 91
2020-11-08 04:00:00 12 17 Sudeste 25 Sur 0 -- -- 91
2020-11-08 03:00:00 12.8 17 Sur 23 Sur 0 -- -- 89
2020-11-08 02:00:00 13 15 Sur 34 Sur 0 -- -- 90
2020-11-08 01:00:00 13.1 29 Sur 40 Sur 0 -- -- 89
2020-11-08 00:00:00 13.5 24 Sur 37 Sur 0 -- -- 87
2020-11-07 23:00:00 12.8 17 Sudeste 24 Sudeste 0 -- -- 86
2020-11-07 22:00:00 12.8 15 Sudeste 22 Sudeste 0 -- -- 86
2020-11-07 21:00:00 13.3 14 Sudeste 20 Sur 0 -- -- 82
2020-11-07 20:00:00 14.2 18 Sur 24 Sur 0 -- -- 80
2020-11-07 19:00:00 14.6 15 Sur 26 Sur 0 -- -- 81
2020-11-07 18:00:00 14.8 16 Sur 30 Sur 0 -- -- 80
2020-11-07 17:00:00 16.5 16 Sur 32 Sur 0 -- -- 73
2020-11-07 16:00:00 15.8 25 Sur 33 Sur 0 -- -- 76
2020-11-07 15:00:00 17.1 24 Sudoeste 32 Sudoeste 0 -- -- 70
2020-11-07 14:00:00 16.2 24 Sudoeste 38 Sur 0.2 -- -- 75
2020-11-07 13:00:00 15.6 23 Sudoeste 36 Sudoeste 0 -- -- 75
2020-11-07 12:00:00 13.6 13 Sudoeste 31 Sudoeste 0 -- -- 85
2020-11-07 11:00:00 13.6 19 Sudoeste 28 Sudoeste 0 -- -- 91
2020-11-07 10:00:00 12.8 15 Sudoeste 25 Sudoeste 0 -- -- 95
2020-11-07 09:00:00 11.6 15 Sudoeste 25 Sudoeste 0 -- -- 98
2020-11-07 08:00:00 11.4 13 Sur 20 Sudoeste 0 -- -- 99
2020-11-07 07:00:00 11.3 12 Sur 20 Sur 0 -- -- 98
2020-11-07 06:00:00 11.9 11 Sur 15 Sur 0 -- -- 98
2020-11-07 05:00:00 12 12 Sudeste 19 Sudeste 0 -- -- 99
2020-11-07 04:00:00 11.9 13 Sudeste 20 Sur 0 -- -- 99
2020-11-07 03:00:00 11.9 9 Sudeste 18 Sudeste 0 -- -- 98
2020-11-07 02:00:00 12 8 Sudeste 18 Sur 0.2 -- -- 98
2020-11-07 01:00:00 11.9 11 Sudeste 24 Sur 3.2 -- -- 98
2020-11-07 00:00:00 12.3 11 Sur 21 Sur 0.4 -- -- 94
2020-11-06 23:00:00 12.3 11 Sudeste 20 Sur 0 -- -- 94
2020-11-06 22:00:00 12.2 13 Sur 21 Sur 0 -- -- 94
2020-11-06 21:00:00 12.1 15 Sudeste 31 Sudeste 0 -- -- 93
2020-11-06 20:00:00 11.9 16 Sudeste 28 Sur 0.2 -- -- 95
2020-11-06 19:00:00 11.8 27 Sur 42 Sudoeste 0.4 -- -- 96
2020-11-06 18:00:00 12.3 34 Sur 71 Sur 3 -- -- 91
2020-11-06 17:00:00 16.7 6 Este 14 Este 0 -- -- 78
2020-11-06 16:00:00 17.7 8 Sur 15 Sur 0 -- -- 72
2020-11-06 15:00:00 17.8 11 Sur 15 Sur 0 -- -- 70
2020-11-06 14:00:00 17.4 14 Sudeste 22 Sudeste 0 -- -- 73
2020-11-06 13:00:00 16.1 9 Sudeste 28 Sudeste 0 -- -- 79
2020-11-06 12:00:00 15.1 21 Sudeste 33 Sudeste 0 -- -- 82
2020-11-06 11:00:00 13.7 15 Este 27 Este 0 -- -- 90
2020-11-06 10:00:00 13 7 Noroeste 57 Este 0 -- -- 93
2020-11-06 09:00:00 12.5 34 Nordeste 45 Este 0.2 -- -- 94
2020-11-06 08:00:00 12.5 19 Este 31 Este 0.2 -- -- 92
2020-11-06 07:00:00 13.1 13 Este 32 Sudeste 0.6 -- -- 89
2020-11-06 06:00:00 13 22 Sudeste 35 Este 0 -- -- 89
2020-11-06 05:00:00 12.2 18 Este 30 Este 0 -- -- 94
2020-11-06 04:00:00 11.7 22 Este 30 Este 0 -- -- 98
2020-11-06 03:00:00 11.6 16 Este 22 Este 0 -- -- 97
2020-11-06 02:00:00 11.6 14 Este 51 Sudoeste 6.6 -- -- 94
2020-11-06 01:00:00 11.6 9 Oeste 21 Oeste 0.8 -- -- 95
2020-11-06 00:00:00 11.8 10 Sur 32 Este 0 -- -- 93
2020-11-05 23:00:00 11.5 19 Este 33 Este 0.2 -- -- 94
2020-11-05 22:00:00 11.6 24 Este 39 Este 0 -- -- 95
2020-11-05 21:00:00 11.6 23 Este 35 Este 0 -- -- 93
2020-11-05 20:00:00 11.3 25 Este 38 Este 0 -- -- 95
2020-11-05 19:00:00 11.7 26 Este 35 Este 0 -- -- 94
2020-11-05 18:00:00 13 18 Este 34 Este 0 -- -- 92
2020-11-05 17:00:00 13.2 17 Este 33 Este 0 -- -- 94
2020-11-05 16:00:00 13.7 21 Este 32 Este 0 -- -- 95
2020-11-05 15:00:00 14 18 Este 36 Este 0 -- -- 95
2020-11-05 14:00:00 14 17 Este 32 Este 0 -- -- 95
2020-11-05 13:00:00 13.5 20 Sudeste 31 Este 0.4 -- -- 95
2020-11-05 12:00:00 12.9 17 Este 39 Este 0 -- -- 98
2020-11-05 11:00:00 11.8 23 Este 49 Este 0.6 -- -- 98
2020-11-05 10:00:00 11.1 23 Este 47 Este 1.8 -- -- 98
2020-11-05 09:00:00 11.3 22 Este 48 Este 0.8 -- -- 97
2020-11-05 08:00:00 10.9 28 Este 58 Este 0.6 -- -- 98
2020-11-05 07:00:00 10.6 37 Este 52 Este 2.4 -- -- 98
2020-11-05 06:00:00 10.7 33 Este 55 Este 1.2 -- -- 98
2020-11-05 05:00:00 10.6 37 Este 63 Este 1.8 -- -- 98
2020-11-05 04:00:00 10.6 40 Este 59 Este 0.2 -- -- 96
2020-11-05 03:00:00 10.7 39 Este 52 Este 0 -- -- 96
2020-11-05 02:00:00 10.8 32 Este 51 Este 0.2 -- -- 96
2020-11-05 01:00:00 10.7 24 Este 55 Este 2.4 -- -- 96
2020-11-05 00:00:00 11 32 Este 56 Este 0.2 -- -- 95